메인 페이지
METAR-TAF:

METAR-TAF

공항 :

Naval Air Station Lemoore (Reeves Field)

Lemoore, 캘리포니아, 미국

위도: 36-18-13N, 경도: 119-56-17W, 고도: 71m

현재 날씨관측

예보는 39분 전, 03:56시(UTC)에 발표되었습니다.
4kt
온도 21°C
습도 40%
기압 1009 hPa
시정: 16.1km
고도 22000ft 상공 구름 조금

METAR: KNLC 220356Z 09004KT 10SM FEW220 21/07 A2979 RMK AO2 SLP086 RH/36 T02060072

시각: 21:35 (04:35 UTC)

예보

예보 대상 시간: 21일 23시부터 22일 23시까지 (UTC)
8kt
시정 10km 이상
고도 5000ft 상공 구름 조금
고도 22000ft 상공 구름 보통
일시적
21일 23시부터 22일 03시까지 (UTC)
여러 방향의 바람 6kt
고도 22000ft 상공 구름 조금
22일 0300시부터 (UTC)
여러 방향의 바람 6kt
시정 10km 이상
고도 22000ft 상공 구름 조금

TAF: KNLC 2123/2223 35008KT 9999 FEW050 SCT220 542509 523404 QNH2972INS TEMPO 2123/2203 VRB06KT FEW220 FM220300 VRB06KT 9999 FEW220 542509 523504 QNH2971INS T13/2212Z T31/2223Z FS30012

4,000개 이상의 공항 관측 자료 및 예보 (METAR 및 TAF 보고).

지도상에서 검색 가능한 기상관측소가 노란 점과 빨간 점으로 표시되어 있습니다.

기상관측소 명을 보려면 표시 위로 마우스를 이동하세요.

날씨 관측과 예보를 보려면 클릭하세요.

지도 변경 : 확대하려면 엑스 표시가 있는 녹색 버튼, 축소하려면 빼기 표시가 있는 녹색 버튼, 다음 페이지의 지도를 보려면 녹색 화살표를 클릭하세요.


METAR-TAF: